• Join FlightAware (Why Join?)
  • Login
  • US Flag 
Trick or treat! (Boo!!) 
04:36AM EDT


 

Airport Tracker/Info


-or-


 

Live Flight TrackerFlight Track Log ✈ CSZ9122 ✈ 01-Aug-2014 ✈ ZBYN / TYN - ZSNT / NTG

Flight Track Log - Related Links

Times and Time Zones

All times are in EDT time to prevent confusion due to time zone crossing. See the CSZ9122 flight status page for this flight to view local times or setup timezone preferences in your user account.

Time Position Orientation Groundspeed Altitude Reporting Facility
EDT Latitude Longitude Course Direction KTS MPH feet Rate Location/Type
08:40AM 37.3358 113.3061 127° Southeast  Level Estimated
08:41AM 37.2768 113.4023 128° Southeast  Level Estimated
08:42AM 37.2177 113.4983 128° Southeast  Level Estimated
08:43AM 37.1585 113.5942 128° Southeast  Level Estimated
08:44AM 37.0992 113.6900 128° Southeast  Level Estimated
08:45AM 37.0399 113.7856 128° Southeast  Level Estimated
08:46AM 36.9804 113.8810 128° Southeast  Level Estimated
08:47AM 36.9209 113.9763 128° Southeast  Level Estimated
08:48AM 36.8614 114.0715 128° Southeast  Level Estimated
08:49AM 36.8017 114.1665 128° Southeast  Level Estimated
08:50AM 36.7420 114.2613 128° Southeast  Level Estimated
08:51AM 36.6822 114.3560 128° Southeast  Level Estimated
08:52AM 36.6223 114.4506 128° Southeast  Level Estimated
08:53AM 36.5624 114.5450 128° Southeast  Level Estimated
08:54AM 36.5023 114.6393 128° Southeast  Level Estimated
08:55AM 36.4422 114.7334 128° Southeast  Level Estimated
08:56AM 36.3820 114.8274 128° Southeast  Level Estimated
08:57AM 36.3218 114.9212 129° Southeast  Level Estimated
08:58AM 36.2615 115.0149 129° Southeast  Level Estimated
08:59AM 36.2011 115.1084 129° Southeast  Level Estimated
09:00AM 36.1406 115.2018 129° Southeast  Level Estimated
09:01AM 36.0801 115.2951 129° Southeast  Level Estimated
09:02AM 36.0195 115.3882 129° Southeast  Level Estimated
09:03AM 35.9588 115.4811 129° Southeast  Level Estimated
09:04AM 35.8980 115.5740 129° Southeast  Level Estimated
09:05AM 35.8372 115.6667 129° Southeast  Level Estimated
09:06AM 35.7763 115.7592 129° Southeast  Level Estimated
09:07AM 35.7154 115.8516 129° Southeast  Level Estimated
09:08AM 35.6543 115.9438 129° Southeast  Level Estimated
09:09AM 35.5932 116.0360 129° Southeast  Level Estimated
09:10AM 35.5320 116.1279 129° Southeast  Level Estimated
09:11AM 35.4708 116.2198 129° Southeast  Level Estimated
09:12AM 35.4095 116.3115 129° Southeast  Level Estimated
09:13AM 35.3481 116.4030 129° Southeast  Level Estimated
09:14AM 35.2866 116.4944 129° Southeast  Level Estimated
09:15AM 35.2251 116.5857 130° Southeast  Level Estimated
09:16AM 35.1635 116.6768 130° Southeast  Level Estimated
09:17AM 35.1018 116.7678 130° Southeast  Level Estimated
09:18AM 35.0401 116.8587 130° Southeast  Level Estimated
09:19AM 34.9783 116.9494 130° Southeast  Level Estimated
09:20AM 34.9165 117.0400 130° Southeast  Level Estimated
09:21AM 34.8545 117.1305 130° Southeast  Level Estimated
09:22AM 34.7925 117.2208 130° Southeast  Level Estimated
09:23AM 34.7304 117.3110 130° Southeast  Level Estimated
09:24AM 34.6683 117.4010 130° Southeast  Level Estimated
09:25AM 34.6061 117.4909 130° Southeast  Level Estimated
09:26AM 34.5439 117.5807 130° Southeast  Level Estimated
09:27AM 34.4815 117.6703 130° Southeast  Level Estimated
09:28AM 34.4191 117.7598 130° Southeast  Level Estimated
09:29AM 34.3567 117.8492 130° Southeast  Level Estimated
09:30AM 34.2942 117.9384 130° Southeast  Level Estimated
09:31AM 34.2316 118.0275 130° Southeast  Level Estimated
09:32AM 34.1689 118.1165 130° Southeast  Level Estimated
09:33AM 34.1062 118.2054 130° Southeast  Level Estimated
09:34AM 34.0434 118.2941 130° Southeast  Level Estimated
09:35AM 33.9806 118.3826 131° Southeast  Level Estimated
09:36AM 33.9177 118.4711 131° Southeast  Level Estimated
09:37AM 33.8547 118.5594 131° Southeast  Level Estimated
09:38AM 33.7917 118.6476 131° Southeast  Level Estimated
09:39AM 33.7286 118.7356 131° Southeast  Level Estimated
09:40AM 33.6654 118.8236 131° Southeast  Level Estimated
09:41AM 33.6022 118.9114 131° Southeast  Level Estimated
09:42AM 33.5389 118.9990 131° Southeast  Level Estimated
09:43AM 33.4756 119.0866 131° Southeast  Level Estimated
09:44AM 33.4122 119.1740 131° Southeast  Level Estimated
09:45AM 33.3487 119.2613 131° Southeast  Level Estimated
09:46AM 33.2852 119.3484 131° Southeast  Level Estimated
09:47AM 33.2216 119.4355 131° Southeast  Level Estimated
09:48AM 33.1579 119.5224 131° Southeast  Level Estimated
09:49AM 33.0942 119.6092 131° Southeast  Level Estimated
09:50AM 33.0304 119.6958 131° Southeast  Level Estimated
09:51AM 32.9666 119.7823 131° Southeast  Level Estimated
09:52AM 32.9027 119.8687 131° Southeast  Level Estimated
09:53AM 32.8388 119.9550 131° Southeast  Level Estimated
09:54AM 32.7748 120.0412 131° Southeast  Level Estimated
09:55AM 32.7107 120.1272 131° Southeast  Level Estimated
09:56AM 32.6466 120.2131 132° Southeast  Level Estimated
09:57AM 32.5824 120.2989 132° Southeast  Level Estimated
09:58AM 32.5182 120.3846 132° Southeast  Level Estimated
09:59AM 32.4538 120.4701 132° Southeast  Level Estimated
10:00AM 32.3895 120.5555 132° Southeast  Level Estimated
10:01AM 32.3251 120.6408 132° Southeast  Level Estimated
10:02AM 32.2606 120.7260 132° Southeast  Level Estimated
10:03AM 32.1961 120.8110 132° Southeast  Level Estimated
10:04AM 32.1315 120.8960 132° Southeast  Level Estimated
10:05AM 32.0708 120.9756 132° Southeast  Level Estimated
10:06AM 32.0708 120.9756 North  Level Estimated
10:07AM 32.0708 120.9756 North  Level Estimated
10:08AM 32.0708 120.9756 North  Level Estimated
10:09AM 32.0708 120.9756 North  Level Estimated
10:10AM 32.0708 120.9756 North  Level Estimated
10:11AM 32.0708 120.9756 North  Level Estimated
10:12AM 32.0708 120.9756 North  Level Estimated
10:13AM 32.0708 120.9756 North  Level Estimated
10:14AM 32.0708 120.9756 North  Level Estimated
10:15AM 32.0708 120.9756 North  Level Estimated
10:16AM 32.0708 120.9756 North  Level Estimated
10:17AM 32.0708 120.9756 North  Level Estimated
10:18AM 32.0708 120.9756 North  Level Estimated
10:19AM 32.0708 120.9756 North  Level Estimated
10:20AM 32.0708 120.9756 North  Level Estimated